createdAt,value
2023-02-25T00:00:23.085Z,90.70
2023-02-25T00:02:52.187Z,85.97
2023-02-25T00:05:20.557Z,97.82
2023-02-25T00:07:48.803Z,96.37
2023-02-25T00:10:17.194Z,96.25
2023-02-25T00:12:45.431Z,92.90
2023-02-25T00:15:13.840Z,96.30
2023-02-25T00:17:41.907Z,93.58
2023-02-25T00:20:12.716Z,92.02
2023-02-25T00:22:41.590Z,92.92
2023-02-25T00:25:09.924Z,90.20
2023-02-25T00:27:37.841Z,94.03
2023-02-25T00:30:20.475Z,88.58
2023-02-25T00:32:48.229Z,93.15
2023-02-25T00:35:16.031Z,94.97
2023-02-25T00:37:44.307Z,98.15
2023-02-25T00:40:16.214Z,101.75
2023-02-25T00:42:44.347Z,93.20
2023-02-25T00:45:13.305Z,91.75
2023-02-25T00:47:44.525Z,92.80
2023-02-25T00:50:14.705Z,107.45
2023-02-25T00:52:42.654Z,93.03
2023-02-25T00:55:10.933Z,98.30
2023-02-25T00:57:39.311Z,89.28
2023-02-25T01:00:09.733Z,97.67
2023-02-25T01:02:38.131Z,97.10
2023-02-25T01:05:06.927Z,101.15
2023-02-25T01:07:34.866Z,98.52
2023-02-25T01:10:03.787Z,96.75
2023-02-25T01:12:35.119Z,103.12
2023-02-25T01:15:02.984Z,100.55
2023-02-25T01:17:31.071Z,103.40
2023-02-25T01:19:58.802Z,106.47
2023-02-25T01:22:27.178Z,99.13
2023-02-25T01:24:57.750Z,95.25
2023-02-25T01:27:25.179Z,94.37
2023-02-25T01:29:53.258Z,109.63
2023-02-25T01:32:21.037Z,94.10
2023-02-25T01:34:48.989Z,93.17
2023-02-25T01:37:16.873Z,97.10
2023-02-25T01:39:45.005Z,95.40
2023-02-25T01:42:15.894Z,104.83
2023-02-25T01:45:13.487Z,103.35
2023-02-25T01:47:42.344Z,107.10
2023-02-25T01:50:10.907Z,106.40
2023-02-25T01:52:41.609Z,105.05
2023-02-25T01:55:11.330Z,101.00
2023-02-25T01:57:38.985Z,93.25
2023-02-25T02:00:12.774Z,101.12
2023-02-25T02:02:44.336Z,103.72
2023-02-25T02:05:13.206Z,95.00
2023-02-25T02:07:42.566Z,103.17
2023-02-25T02:10:24.028Z,106.15
2023-02-25T02:12:54.855Z,100.35
2023-02-25T02:15:22.929Z,102.12
2023-02-25T02:17:56.540Z,96.10
2023-02-25T02:20:27.482Z,97.70
2023-02-25T02:23:12.654Z,97.37
2023-02-25T02:26:14.997Z,104.32
2023-02-25T02:29:02.018Z,97.20
2023-02-25T02:31:39.284Z,96.75
2023-02-25T02:34:36.706Z,96.42
2023-02-25T02:37:28.293Z,91.32
2023-02-25T02:40:17.876Z,86.28
2023-02-25T02:43:09.295Z,84.25
2023-02-25T02:45:43.960Z,83.65
2023-02-25T02:48:16.190Z,82.35
2023-02-25T02:50:53.796Z,80.05
2023-02-25T02:53:37.452Z,85.90
2023-02-25T02:56:07.600Z,80.95
2023-02-25T02:58:39.207Z,85.70
2023-02-25T03:01:13.994Z,83.12
2023-02-25T03:03:45.514Z,82.33
2023-02-25T03:06:16.921Z,82.65
2023-02-25T03:09:02.116Z,90.22
2023-02-25T03:11:31.456Z,83.87
2023-02-25T03:14:02.535Z,84.00
2023-02-25T03:16:34.826Z,93.03
2023-02-25T03:19:21.736Z,86.67
2023-02-25T03:21:59.398Z,84.25
2023-02-25T03:24:37.384Z,85.12
2023-02-25T03:27:26.068Z,82.15
2023-02-25T03:29:59.209Z,80.77
2023-02-25T03:32:29.806Z,75.00
2023-02-25T03:35:00.956Z,85.50
2023-02-25T03:37:31.913Z,92.53
2023-02-25T03:40:05.034Z,91.45
2023-02-25T03:42:35.083Z,90.62
2023-02-25T03:45:07.448Z,99.45
2023-02-25T03:47:38.165Z,86.72
2023-02-25T03:50:13.343Z,85.77
2023-02-25T03:52:43.268Z,80.77
2023-02-25T03:55:15.115Z,83.30
2023-02-25T03:57:45.881Z,76.60
2023-02-25T04:00:23.984Z,75.52
2023-02-25T04:02:52.548Z,80.28
2023-02-25T04:05:30.732Z,80.30
2023-02-25T04:08:00.626Z,83.75
2023-02-25T04:10:30.640Z,85.42
2023-02-25T04:12:58.541Z,83.55
2023-02-25T04:15:28.019Z,89.03
2023-02-25T04:17:55.863Z,88.03
2023-02-25T04:20:23.680Z,96.95
2023-02-25T04:22:53.794Z,89.10
2023-02-25T04:25:23.862Z,92.78
2023-02-25T04:27:52.434Z,86.95
2023-02-25T04:30:21.041Z,84.37
2023-02-25T04:32:49.335Z,88.30
2023-02-25T04:35:18.742Z,79.00
2023-02-25T04:37:46.601Z,92.02
2023-02-25T04:40:18.277Z,87.72
2023-02-25T04:42:48.098Z,94.85
2023-02-25T04:45:35.626Z,92.37
2023-02-25T04:48:03.918Z,99.87
2023-02-25T04:50:31.773Z,91.02
2023-02-25T04:53:02.645Z,96.87
2023-02-25T04:55:31.686Z,100.95
2023-02-25T04:57:59.288Z,95.15
2023-02-25T05:00:30.131Z,94.45
2023-02-25T05:02:58.947Z,94.47
2023-02-25T05:05:26.581Z,99.72
2023-02-25T05:07:55.099Z,101.05
2023-02-25T05:10:22.876Z,100.60
2023-02-25T05:12:50.784Z,95.05
2023-02-25T05:15:19.455Z,94.17
2023-02-25T05:17:48.635Z,89.35
2023-02-25T05:20:16.771Z,85.60
2023-02-25T05:22:45.208Z,96.65
2023-02-25T05:25:14.140Z,97.40
2023-02-25T05:27:42.896Z,100.97
2023-02-25T05:30:12.028Z,100.18
2023-02-25T05:32:43.324Z,108.70
2023-02-25T05:35:11.278Z,99.80
2023-02-25T05:37:39.092Z,105.05
2023-02-25T05:40:10.002Z,103.65
2023-02-25T05:42:38.613Z,108.25
2023-02-25T05:45:10.558Z,97.75
2023-02-25T05:47:39.415Z,98.25
2023-02-25T05:50:08.324Z,90.10
2023-02-25T05:52:36.549Z,94.35
2023-02-25T05:55:05.544Z,89.47
2023-02-25T05:57:33.460Z,90.80
2023-02-25T06:00:02.154Z,90.77
2023-02-25T06:02:34.096Z,93.10
2023-02-25T06:05:07.536Z,82.60
2023-02-25T06:07:35.427Z,84.25
2023-02-25T06:10:03.275Z,82.47
2023-02-25T06:12:35.071Z,82.27
2023-02-25T06:15:04.482Z,86.15
2023-02-25T06:17:32.914Z,94.75
2023-02-25T06:20:01.438Z,92.12
2023-02-25T06:22:32.410Z,86.02
2023-02-25T06:25:00.024Z,93.35
2023-02-25T06:27:48.131Z,89.92
2023-02-25T06:30:16.670Z,88.20
2023-02-25T06:32:45.187Z,87.47
2023-02-25T06:35:13.337Z,82.53
2023-02-25T06:37:44.174Z,88.50
2023-02-25T06:40:12.990Z,89.22
2023-02-25T06:42:40.915Z,76.53
2023-02-25T06:45:10.064Z,74.58
2023-02-25T06:47:38.047Z,73.80
2023-02-25T06:50:06.974Z,83.37
2023-02-25T06:52:34.740Z,78.67
2023-02-25T06:55:02.811Z,74.87
2023-02-25T06:57:31.723Z,74.42
2023-02-25T07:00:00.117Z,69.05
2023-02-25T07:02:49.364Z,70.28
2023-02-25T07:05:20.554Z,73.85
2023-02-25T07:07:48.383Z,73.85
2023-02-25T07:10:16.329Z,72.53
2023-02-25T07:12:44.366Z,68.80
2023-02-25T07:15:12.417Z,63.33
2023-02-25T07:17:40.451Z,65.90
2023-02-25T07:20:09.754Z,66.40
2023-02-25T07:22:37.857Z,66.55
2023-02-25T07:25:07.397Z,62.58
2023-02-25T07:27:35.508Z,67.55
2023-02-25T07:30:06.984Z,66.20
2023-02-25T07:32:34.970Z,61.18
2023-02-25T07:35:03.437Z,62.70
2023-02-25T07:37:32.494Z,57.83
2023-02-25T07:40:00.778Z,67.72
2023-02-25T07:42:29.022Z,64.03
2023-02-25T07:45:00.419Z,51.00
2023-02-25T07:47:28.467Z,61.77
2023-02-25T07:49:56.122Z,54.80
2023-02-25T07:52:24.230Z,57.45
2023-02-25T07:54:52.756Z,59.73
2023-02-25T07:57:36.943Z,55.45
2023-02-25T08:00:08.048Z,53.35
2023-02-25T08:02:57.459Z,54.03
2023-02-25T08:05:26.029Z,55.52
2023-02-25T08:07:54.306Z,47.40
2023-02-25T08:10:22.166Z,53.15
2023-02-25T08:12:49.882Z,52.90
2023-02-25T08:15:17.714Z,50.45
2023-02-25T08:17:45.613Z,47.38
2023-02-25T08:20:14.420Z,50.70
2023-02-25T08:22:42.145Z,46.00
2023-02-25T08:25:11.624Z,50.73
2023-02-25T08:27:39.656Z,49.35
2023-02-25T08:30:09.133Z,48.02
2023-02-25T08:32:37.561Z,56.15
2023-02-25T08:35:06.216Z,50.10
2023-02-25T08:37:34.690Z,50.40
2023-02-25T08:40:02.844Z,37.33
2023-02-25T08:42:31.811Z,42.17
2023-02-25T08:44:59.440Z,49.48
2023-02-25T08:47:27.426Z,43.33
2023-02-25T08:49:55.457Z,38.95
2023-02-25T08:52:24.311Z,31.93
2023-02-25T08:54:52.493Z,39.70
2023-02-25T08:57:21.355Z,37.60
2023-02-25T08:59:48.932Z,36.03
2023-02-25T09:02:17.832Z,36.30
2023-02-25T09:04:45.723Z,32.05
2023-02-25T09:07:16.936Z,41.02
2023-02-25T09:09:45.635Z,39.70
2023-02-25T09:12:13.795Z,43.13
2023-02-25T09:14:41.609Z,41.42
2023-02-25T09:17:10.086Z,40.70
2023-02-25T09:19:43.052Z,41.42
2023-02-25T09:22:11.518Z,42.15
2023-02-25T09:24:39.634Z,44.83
2023-02-25T09:27:08.821Z,43.50
2023-02-25T09:32:22.886Z,41.65
2023-02-25T09:34:51.246Z,39.23
2023-02-25T09:37:26.665Z,37.45
2023-02-25T09:39:54.492Z,45.80
2023-02-25T09:42:30.818Z,45.45
2023-02-25T09:45:02.196Z,38.45
2023-02-25T09:47:45.763Z,42.25
2023-02-25T09:50:19.408Z,43.63
2023-02-25T09:52:52.283Z,45.75
2023-02-25T09:55:27.744Z,44.13
2023-02-25T09:58:14.704Z,49.83
2023-02-25T10:01:02.109Z,48.92
2023-02-25T10:03:52.124Z,40.40
2023-02-25T10:06:37.673Z,42.88
2023-02-25T10:09:18.405Z,46.70
2023-02-25T10:11:54.843Z,43.58
2023-02-25T10:14:53.685Z,44.63
2023-02-25T10:17:57.693Z,40.60
2023-02-25T10:20:35.247Z,45.60
2023-02-25T10:23:06.907Z,37.03
2023-02-25T10:25:41.187Z,35.80
2023-02-25T10:28:12.768Z,37.78
2023-02-25T10:31:00.674Z,40.38
2023-02-25T10:33:31.176Z,34.78
2023-02-25T10:36:03.040Z,29.12
2023-02-25T10:38:30.604Z,33.10
2023-02-25T10:41:00.386Z,32.70
2023-02-25T10:43:28.780Z,37.00
2023-02-25T10:46:10.736Z,31.93
2023-02-25T10:48:40.803Z,38.28
2023-02-25T10:51:15.529Z,29.18
2023-02-25T10:56:40.817Z,37.90
2023-02-25T10:59:31.543Z,34.65
2023-02-25T11:02:01.277Z,28.90
2023-02-25T11:04:36.040Z,36.00
2023-02-25T11:07:24.670Z,28.57
2023-02-25T11:10:10.844Z,28.17
2023-02-25T11:12:53.371Z,44.23
2023-02-25T11:15:44.264Z,26.60
2023-02-25T11:18:20.859Z,27.60
2023-02-25T11:20:53.220Z,33.18
2023-02-25T11:23:31.804Z,34.40
2023-02-25T11:26:00.711Z,31.77
2023-02-25T11:28:35.685Z,25.80
2023-02-25T11:31:23.950Z,23.87
2023-02-25T11:33:58.476Z,30.20
2023-02-25T11:36:33.008Z,25.85
2023-02-25T11:39:07.681Z,26.73
2023-02-25T11:41:35.972Z,19.73
2023-02-25T11:44:24.449Z,29.60
2023-02-25T11:46:59.915Z,27.00
2023-02-25T11:49:52.653Z,29.63
2023-02-25T11:52:40.188Z,30.52
2023-02-25T12:01:22.648Z,26.20
2023-02-25T12:04:13.163Z,24.00
2023-02-25T12:07:10.909Z,28.80
2023-02-25T12:09:59.017Z,22.15
2023-02-25T12:12:41.328Z,29.45
2023-02-25T12:15:33.746Z,29.85
2023-02-25T12:18:08.934Z,19.87
2023-02-25T12:20:53.012Z,27.22
2023-02-25T12:23:39.422Z,24.00
2023-02-25T12:26:21.746Z,27.22
2023-02-25T12:29:21.197Z,31.57
2023-02-25T12:31:54.887Z,27.70
2023-02-25T12:34:44.264Z,27.17
2023-02-25T12:37:40.016Z,22.32
2023-02-25T12:40:28.587Z,19.73
2023-02-25T12:43:26.053Z,19.15
2023-02-25T12:46:17.281Z,24.47
2023-02-25T12:49:01.154Z,21.15
2023-02-25T12:52:01.676Z,19.37
2023-02-25T12:54:56.021Z,17.77
2023-02-25T12:57:36.767Z,22.58
2023-02-25T13:00:19.731Z,32.23
2023-02-25T13:03:26.090Z,26.87
2023-02-25T13:06:21.886Z,23.55
2023-02-25T13:09:12.267Z,28.98
2023-02-25T13:12:11.030Z,24.63
2023-02-25T13:14:38.446Z,22.93
2023-02-25T13:17:43.893Z,23.47
2023-02-25T13:20:48.481Z,16.07
2023-02-25T13:23:32.102Z,20.85
2023-02-25T13:26:20.347Z,24.72
2023-02-25T13:29:10.346Z,21.93
2023-02-25T13:31:53.663Z,22.73
2023-02-25T13:34:45.194Z,21.50
2023-02-25T13:37:17.097Z,21.80
2023-02-25T13:40:05.681Z,29.12
2023-02-25T13:42:58.082Z,18.67
2023-02-25T13:45:46.702Z,16.97
2023-02-25T13:48:32.740Z,20.40
2023-02-25T13:51:25.972Z,23.92
2023-02-25T13:54:12.608Z,22.22
2023-02-25T13:56:47.020Z,21.52
2023-02-25T13:59:52.355Z,24.60
2023-02-25T14:02:46.426Z,26.85
2023-02-25T14:05:37.070Z,21.45
2023-02-25T14:08:08.955Z,27.17
2023-02-25T14:10:50.089Z,29.77
2023-02-25T14:13:42.249Z,23.50
2023-02-25T14:16:36.750Z,31.82
2023-02-25T14:19:25.473Z,19.67
2023-02-25T14:22:22.521Z,29.00
2023-02-25T14:25:10.894Z,25.77
2023-02-25T14:27:59.681Z,23.95
2023-02-25T14:30:38.233Z,28.15
2023-02-25T14:33:30.805Z,26.82
2023-02-25T14:36:09.349Z,28.70
2023-02-25T14:39:09.388Z,26.77
2023-02-25T14:41:55.306Z,26.73
2023-02-25T14:44:42.108Z,26.35
2023-02-25T14:47:13.688Z,30.35
2023-02-25T14:50:00.439Z,22.17
2023-02-25T14:52:59.524Z,30.77
2023-02-25T14:55:56.365Z,31.17
2023-02-25T14:58:59.834Z,30.50
2023-02-25T15:01:47.954Z,28.47
2023-02-25T15:04:26.340Z,22.87
2023-02-25T15:07:01.631Z,28.75
2023-02-25T15:10:01.822Z,29.10
2023-02-25T15:12:42.936Z,22.30
2023-02-25T15:15:30.710Z,32.65
2023-02-25T15:18:20.334Z,30.00
2023-02-25T15:20:48.577Z,34.10
2023-02-25T15:23:19.935Z,30.30
2023-02-25T15:25:54.198Z,33.50
2023-02-25T15:28:36.965Z,33.67
2023-02-25T15:31:08.996Z,26.80
2023-02-25T15:33:41.098Z,32.00
2023-02-25T15:36:18.858Z,30.88
2023-02-25T15:38:55.842Z,40.40
2023-02-25T15:41:39.988Z,38.88
2023-02-25T15:44:18.139Z,35.92
2023-02-25T15:46:50.598Z,36.58
2023-02-25T15:49:22.289Z,38.20
2023-02-25T15:51:56.916Z,31.80
2023-02-25T15:57:11.660Z,31.73
2023-02-25T15:59:48.727Z,36.20
2023-02-25T16:02:33.703Z,28.55
2023-02-25T16:07:49.718Z,26.07
2023-02-25T16:10:25.844Z,37.63
2023-02-25T16:12:56.799Z,30.55
2023-02-25T16:15:35.126Z,37.85
2023-02-25T16:18:40.667Z,32.48
2023-02-25T16:21:12.778Z,31.90
2023-02-25T16:23:41.823Z,37.42
2023-02-25T16:26:31.954Z,41.08
2023-02-25T16:29:20.615Z,37.03
2023-02-25T16:31:59.064Z,38.92
2023-02-25T16:34:36.357Z,30.25
2023-02-25T16:37:07.947Z,31.33
2023-02-25T16:39:37.887Z,32.95
2023-02-25T16:42:15.001Z,40.98
2023-02-25T16:44:47.241Z,36.05
2023-02-25T16:47:22.072Z,36.68
2023-02-25T16:49:52.218Z,41.60
2023-02-25T16:52:34.254Z,38.28
2023-02-25T16:55:05.928Z,36.98
2023-02-25T16:57:35.124Z,43.85
2023-02-25T17:00:20.212Z,41.33
2023-02-25T17:02:51.345Z,42.10
2023-02-25T17:05:28.265Z,40.58
2023-02-25T17:08:02.378Z,46.50
2023-02-25T17:10:41.548Z,52.67
2023-02-25T17:13:13.091Z,52.10
2023-02-25T17:15:41.957Z,54.80
2023-02-25T17:18:20.302Z,59.23
2023-02-25T17:20:48.544Z,65.85
2023-02-25T17:23:17.447Z,69.58
2023-02-25T17:25:49.159Z,60.73
2023-02-25T17:28:20.737Z,70.00
2023-02-25T17:30:52.473Z,79.53
2023-02-25T17:33:26.087Z,69.10
2023-02-25T17:35:59.532Z,64.03
2023-02-25T17:38:30.585Z,71.12
2023-02-25T17:40:59.695Z,69.95
2023-02-25T17:43:40.329Z,67.00
2023-02-25T17:46:24.648Z,71.60
2023-02-25T17:48:56.001Z,67.65
2023-02-25T17:51:33.898Z,67.20
2023-02-25T17:54:19.646Z,64.25
2023-02-25T17:57:00.327Z,84.20
2023-02-25T17:59:41.259Z,68.28
2023-02-25T18:02:33.733Z,74.55
2023-02-25T18:05:18.804Z,78.62
2023-02-25T18:08:00.123Z,77.55
2023-02-25T18:10:38.566Z,73.42
2023-02-25T18:13:06.340Z,66.30
2023-02-25T18:15:35.241Z,73.12
2023-02-25T18:18:18.428Z,65.28
2023-02-25T18:20:48.354Z,68.72
2023-02-25T18:23:23.767Z,59.48
2023-02-25T18:26:11.991Z,57.15
2023-02-25T18:28:40.291Z,58.70
2023-02-25T18:31:08.393Z,52.35
2023-02-25T18:33:38.015Z,46.77
2023-02-25T18:36:07.944Z,49.18
2023-02-25T18:38:41.308Z,50.88
2023-02-25T18:41:09.240Z,55.50
2023-02-25T18:43:38.849Z,54.03
2023-02-25T18:46:07.480Z,49.08
2023-02-25T18:48:42.631Z,52.40
2023-02-25T18:51:14.128Z,48.80
2023-02-25T18:53:45.413Z,46.58
2023-02-25T18:56:18.455Z,51.73
2023-02-25T18:58:46.986Z,47.40
2023-02-25T19:01:24.302Z,51.83
2023-02-25T19:03:57.432Z,54.67
2023-02-25T19:06:30.110Z,72.22
2023-02-25T19:08:58.133Z,59.83
2023-02-25T19:11:27.864Z,63.05
2023-02-25T19:13:56.403Z,62.80
2023-02-25T19:16:24.555Z,56.85
2023-02-25T19:18:52.696Z,60.63
2023-02-25T19:21:23.299Z,54.98
2023-02-25T19:23:52.967Z,56.33
2023-02-25T19:26:26.545Z,48.55
2023-02-25T19:28:54.834Z,62.95
2023-02-25T19:31:23.163Z,57.53
2023-02-25T19:33:52.309Z,63.83
2023-02-25T19:36:21.252Z,52.55
2023-02-25T19:38:49.179Z,61.63
2023-02-25T19:41:17.844Z,56.98
2023-02-25T19:43:46.952Z,58.95
2023-02-25T19:46:17.660Z,56.65
2023-02-25T19:48:45.751Z,59.98
2023-02-25T19:51:14.588Z,58.33
2023-02-25T19:53:45.677Z,58.63
2023-02-25T19:56:13.849Z,64.72
2023-02-25T19:58:42.121Z,60.25
2023-02-25T20:01:09.841Z,62.10
2023-02-25T20:03:38.026Z,59.50
2023-02-25T20:06:09.162Z,56.60
2023-02-25T20:08:39.163Z,60.35
2023-02-25T20:11:26.905Z,62.58
2023-02-25T20:13:55.294Z,58.38
2023-02-25T20:16:25.852Z,63.78
2023-02-25T20:18:56.168Z,62.90
2023-02-25T20:21:25.589Z,59.90
2023-02-25T20:23:54.080Z,47.65
2023-02-25T20:26:23.629Z,56.58
2023-02-25T20:28:54.567Z,50.90
2023-02-25T20:31:23.695Z,54.77
2023-02-25T20:33:55.012Z,54.83
2023-02-25T20:36:28.918Z,55.73
2023-02-25T20:39:34.971Z,51.05
2023-02-25T20:42:04.668Z,51.90
2023-02-25T20:44:36.224Z,50.05
2023-02-25T20:47:06.420Z,52.67
2023-02-25T20:49:34.532Z,63.25
2023-02-25T20:52:02.921Z,59.53
2023-02-25T20:54:30.969Z,58.87
2023-02-25T20:56:59.558Z,61.58
2023-02-25T20:59:29.933Z,66.97
2023-02-25T21:02:00.351Z,56.50
2023-02-25T21:04:31.231Z,48.73
2023-02-25T21:06:59.441Z,47.93
2023-02-25T21:09:27.819Z,49.53
2023-02-25T21:11:55.670Z,43.92
2023-02-25T21:14:24.364Z,52.23
2023-02-25T21:16:54.397Z,43.23
2023-02-25T21:19:28.199Z,43.23
2023-02-25T21:21:56.541Z,39.95
2023-02-25T21:24:27.396Z,43.10
2023-02-25T21:26:55.575Z,43.20
2023-02-25T21:29:25.055Z,46.70
2023-02-25T21:31:52.855Z,49.42
2023-02-25T21:34:21.488Z,49.67
2023-02-25T21:36:48.941Z,50.35
2023-02-25T21:39:16.841Z,47.45
2023-02-25T21:41:45.104Z,48.65
2023-02-25T21:44:13.911Z,51.30
2023-02-25T21:46:41.952Z,47.65
2023-02-25T21:49:10.952Z,52.50
2023-02-25T21:51:40.769Z,50.80
2023-02-25T21:54:11.586Z,49.50
2023-02-25T21:56:41.377Z,58.00
2023-02-25T21:59:09.152Z,50.50
2023-02-25T22:01:39.512Z,47.65
2023-02-25T22:04:08.711Z,50.23
2023-02-25T22:06:36.708Z,47.33
2023-02-25T22:09:06.883Z,49.03
2023-02-25T22:11:37.080Z,54.18
2023-02-25T22:14:07.333Z,51.45
2023-02-25T22:16:36.527Z,48.75
2023-02-25T22:19:05.049Z,56.98
2023-02-25T22:21:34.564Z,46.98
2023-02-25T22:24:04.719Z,48.80
2023-02-25T22:26:35.304Z,51.53
2023-02-25T22:29:07.263Z,53.38
2023-02-25T22:31:35.912Z,55.75
2023-02-25T22:34:06.587Z,56.90
2023-02-25T22:36:34.853Z,60.67
2023-02-25T22:39:07.751Z,55.12
2023-02-25T22:41:37.203Z,49.38
2023-02-25T22:44:06.107Z,60.78
2023-02-25T22:46:36.971Z,58.20
2023-02-25T22:49:06.161Z,61.42
2023-02-25T22:51:36.892Z,60.88
2023-02-25T22:54:05.676Z,68.28
2023-02-25T22:56:34.186Z,67.85
2023-02-25T22:59:04.795Z,76.17
2023-02-25T23:01:36.475Z,71.87
2023-02-25T23:04:04.437Z,73.70
2023-02-25T23:06:43.445Z,71.92
2023-02-25T23:09:02.669Z,69.67
2023-02-25T23:11:33.257Z,89.25
2023-02-25T23:14:03.251Z,74.55
2023-02-25T23:16:35.218Z,76.97
2023-02-25T23:19:05.117Z,77.78
2023-02-25T23:21:35.284Z,70.45
2023-02-25T23:24:03.494Z,73.75
2023-02-25T23:26:34.339Z,80.87
2023-02-25T23:29:05.668Z,70.22
2023-02-25T23:31:40.190Z,70.37
2023-02-25T23:34:11.193Z,68.78
2023-02-25T23:36:43.354Z,63.38
2023-02-25T23:39:12.896Z,54.65
2023-02-25T23:41:41.167Z,45.70
2023-02-25T23:44:09.775Z,51.92
2023-02-25T23:46:38.474Z,54.77
2023-02-25T23:49:07.626Z,46.70
2023-02-25T23:51:37.018Z,52.58
2023-02-25T23:54:09.841Z,53.10
2023-02-25T23:56:38.118Z,47.85
2023-02-25T23:59:06.154Z,48.20
